Time;durP1;ratioP1;P1;durP2;ratioP2;P2;SDS_P1;SDS_P2;PMS_P1;PMS_P2;Temp;Humidity;BMP_temperature;BMP_pressure;BME280_temperature;BME280_humidity;BME280_pressure;Samples;Min_cycle;Max_cycle;Signal;HPM_P1;HPM_P2
2024/01/27 00:01:43;;;;;;;38.30;10.95;;;3.70;99.90;;;;;;5031231;28;20037;-88
2024/01/27 00:04:09;;;;;;;33.47;7.40;;;3.70;99.90;;;;;;5014124;28;20041;-87
2024/01/27 00:06:34;;;;;;;19.38;3.90;;;4.70;99.90;;;;;;5000585;28;20038;-88
2024/01/27 00:09:01;;;;;;;20.75;4.38;;;3.80;99.90;;;;;;5013485;28;20504;-88
2024/01/27 00:11:27;;;;;;;20.77;3.97;;;3.70;99.90;;;;;;5013088;28;20089;-88
2024/01/27 00:13:52;;;;;;;19.92;3.17;;;3.70;99.90;;;;;;5031083;28;20037;-88
2024/01/27 00:16:18;;;;;;;21.17;5.00;;;3.70;99.90;;;;;;5019352;28;20037;-88
2024/01/27 00:18:44;;;;;;;21.52;3.80;;;4.60;99.90;;;;;;5016982;28;20034;-88
2024/01/27 00:21:09;;;;;;;20.38;4.18;;;5.10;99.90;;;;;;4999367;28;20029;-88
2024/01/27 00:23:35;;;;;;;22.75;4.75;;;4.70;99.90;;;;;;4981637;28;20060;-88
2024/01/27 00:26:01;;;;;;;27.20;4.32;;;3.70;99.90;;;;;;5013138;28;20505;-88
2024/01/27 00:28:27;;;;;;;18.70;2.75;;;3.70;99.90;;;;;;4997161;28;20485;-88
2024/01/27 00:30:52;;;;;;;21.67;4.03;;;4.10;99.90;;;;;;5030357;28;20102;-88
2024/01/27 00:33:18;;;;;;;19.27;3.13;;;5.10;99.90;;;;;;5028027;28;20052;-88
2024/01/27 00:35:44;;;;;;;23.17;4.13;;;3.60;99.90;;;;;;4999054;28;20038;-88
2024/01/27 00:38:09;;;;;;;22.08;3.28;;;4.60;99.90;;;;;;4995521;28;20034;-88
2024/01/27 00:40:35;;;;;;;16.90;3.47;;;4.90;99.90;;;;;;5000386;28;20025;-88
2024/01/27 00:43:03;;;;;;;18.55;3.35;;;3.50;99.90;;;;;;5034899;28;20564;-88
2024/01/27 00:45:30;;;;;;;21.42;3.38;;;3.50;99.90;;;;;;4990475;28;20044;-88
2024/01/27 00:47:56;;;;;;;22.70;3.67;;;4.90;99.90;;;;;;5007717;28;20049;-88
2024/01/27 00:50:22;;;;;;;17.77;3.38;;;3.50;99.90;;;;;;5023647;28;20450;-88
2024/01/27 00:52:48;;;;;;;12.65;2.67;;;3.60;99.90;;;;;;5016673;28;20076;-88
2024/01/27 00:55:14;;;;;;;15.15;3.30;;;3.50;99.90;;;;;;5025778;28;20059;-88
2024/01/27 00:57:39;;;;;;;18.00;3.95;;;3.50;99.90;;;;;;5034720;28;20092;-88
2024/01/27 01:00:07;;;;;;;20.00;3.28;;;4.50;99.90;;;;;;5026311;28;20076;-88
2024/01/27 01:02:33;;;;;;;16.50;2.80;;;3.50;99.90;;;;;;5016687;28;20041;-88
2024/01/27 01:04:58;;;;;;;21.77;3.00;;;3.40;99.90;;;;;;5034167;28;20112;-88
2024/01/27 01:07:24;;;;;;;17.08;3.25;;;4.00;99.90;;;;;;5014322;28;20041;-88
2024/01/27 01:09:50;;;;;;;20.27;3.60;;;3.50;99.90;;;;;;5000144;28;20084;-87
2024/01/27 01:12:15;;;;;;;18.63;3.72;;;3.40;99.90;;;;;;4998293;28;20030;-89
2024/01/27 01:14:41;;;;;;;18.58;3.35;;;3.40;99.90;;;;;;5003760;28;20030;-89
2024/01/27 01:17:07;;;;;;;29.45;5.13;;;3.40;99.90;;;;;;5000969;28;20041;-88
2024/01/27 01:19:33;;;;;;;18.45;4.38;;;4.20;99.90;;;;;;5011628;28;20045;-88
2024/01/27 01:21:59;;;;;;;18.92;4.65;;;3.70;99.90;;;;;;5023168;28;20408;-88
2024/01/27 01:24:24;;;;;;;17.63;4.32;;;3.40;99.90;;;;;;5024362;28;20423;-88
2024/01/27 01:26:50;;;;;;;13.05;2.80;;;4.40;99.90;;;;;;4993748;28;20116;-88
2024/01/27 01:29:16;;;;;;;24.40;3.13;;;3.40;99.90;;;;;;5032026;28;20610;-88
2024/01/27 01:31:45;;;;;;;16.63;2.90;;;3.50;99.90;;;;;;5033538;28;20049;-87
2024/01/27 01:34:10;;;;;;;17.95;2.80;;;3.40;99.90;;;;;;5039030;28;20040;-88
2024/01/27 01:36:37;;;;;;;16.42;3.00;;;3.40;99.90;;;;;;5030918;28;20034;-88
2024/01/27 01:39:03;;;;;;;16.55;2.95;;;4.50;99.90;;;;;;5015804;28;20521;-88
2024/01/27 01:41:29;;;;;;;16.35;3.00;;;3.40;99.90;;;;;;5015714;28;20072;-88
2024/01/27 01:43:54;;;;;;;13.73;3.00;;;3.40;99.90;;;;;;5033897;28;20125;-88
2024/01/27 01:46:23;;;;;;;25.00;3.90;;;3.70;99.90;;;;;;4993202;28;20046;-88
2024/01/27 01:48:50;;;;;;;23.25;3.05;;;4.40;99.90;;;;;;5015469;28;20037;-88
2024/01/27 01:51:18;;;;;;;15.85;2.97;;;3.40;99.90;;;;;;5003114;28;20038;-88
2024/01/27 01:53:47;;;;;;;15.43;2.95;;;3.40;99.90;;;;;;5015861;28;20038;-89
2024/01/27 01:56:15;;;;;;;13.68;2.35;;;3.40;99.90;;;;;;5032980;28;20171;-88
2024/01/27 01:58:40;;;;;;;15.57;2.97;;;3.30;99.90;;;;;;5015549;28;20033;-88
2024/01/27 02:01:06;;;;;;;17.85;2.72;;;3.30;99.90;;;;;;5018834;28;20275;-89
2024/01/27 02:03:31;;;;;;;16.58;2.83;;;3.20;99.90;;;;;;5032397;28;20095;-88
2024/01/27 02:05:57;;;;;;;16.52;3.50;;;4.30;99.90;;;;;;5017314;28;20041;-88
2024/01/27 02:08:23;;;;;;;15.70;3.35;;;3.20;99.90;;;;;;4993881;28;20045;-88
2024/01/27 02:10:48;;;;;;;15.80;2.83;;;3.20;99.90;;;;;;5006873;28;20080;-87
2024/01/27 02:13:22;;;;;;;19.08;2.60;;;3.20;99.90;;;;;;5015750;28;20080;-89
2024/01/27 02:15:50;;;;;;;10.70;2.47;;;3.10;99.90;;;;;;5009939;28;20079;-88
2024/01/27 02:18:16;;;;;;;14.90;3.20;;;4.30;99.90;;;;;;5041768;28;20064;-88
2024/01/27 02:20:42;;;;;;;16.17;2.95;;;3.90;99.90;;;;;;4996655;28;20400;-88
2024/01/27 02:23:08;;;;;;;16.50;2.65;;;3.10;99.90;;;;;;5046634;28;20052;-88
2024/01/27 02:25:34;;;;;;;15.65;3.05;;;3.10;99.90;;;;;;5034977;28;20041;-88
2024/01/27 02:28:01;;;;;;;11.63;3.05;;;4.50;99.90;;;;;;5015540;28;20122;-88
2024/01/27 02:30:26;;;;;;;17.23;2.55;;;3.20;99.90;;;;;;4999612;28;20049;-88
2024/01/27 02:32:52;;;;;;;21.15;3.00;;;3.20;99.90;;;;;;4989734;28;20049;-88
2024/01/27 02:35:18;;;;;;;16.95;3.35;;;3.20;99.90;;;;;;5015503;28;20523;-88
2024/01/27 02:37:43;;;;;;;13.88;2.70;;;3.70;99.90;;;;;;5016894;28;20079;-89
2024/01/27 02:40:10;;;;;;;18.60;2.72;;;3.10;99.90;;;;;;5024026;28;20040;-89
2024/01/27 02:42:36;;;;;;;14.88;2.95;;;3.10;99.90;;;;;;4995813;28;20120;-88
2024/01/27 02:45:02;;;;;;;21.55;2.83;;;3.10;99.90;;;;;;5018574;28;20033;-88
2024/01/27 02:47:28;;;;;;;15.30;2.83;;;3.10;99.90;;;;;;5007482;28;20051;-89
2024/01/27 02:49:54;;;;;;;12.95;3.30;;;3.00;99.90;;;;;;5009580;28;20125;-89
2024/01/27 02:52:19;;;;;;;11.60;2.42;;;3.00;99.90;;;;;;4992138;28;20042;-88
2024/01/27 02:54:45;;;;;;;14.02;2.90;;;3.00;99.90;;;;;;5001424;28;20408;-88
2024/01/27 02:57:12;;;;;;;18.15;2.75;;;3.00;99.90;;;;;;5031172;28;20681;-89
2024/01/27 02:59:38;;;;;;;11.32;2.42;;;3.70;99.90;;;;;;5035072;28;20047;-88
2024/01/27 03:02:08;;;;;;;17.92;2.95;;;4.10;99.90;;;;;;5023201;28;20099;-88
2024/01/27 03:04:33;;;;;;;13.85;2.50;;;3.00;99.90;;;;;;5028496;28;20529;-89
2024/01/27 03:06:59;;;;;;;13.57;3.38;;;3.00;99.90;;;;;;5005818;28;20038;-88
2024/01/27 03:09:25;;;;;;;15.25;2.53;;;4.00;99.90;;;;;;5034389;28;20037;-88
2024/01/27 03:11:51;;;;;;;18.05;2.70;;;3.10;99.90;;;;;;5014076;28;20094;-89
2024/01/27 03:14:16;;;;;;;16.75;2.72;;;3.90;99.90;;;;;;5009158;28;20038;-88
2024/01/27 03:16:44;;;;;;;19.60;3.03;;;3.10;99.90;;;;;;5023774;28;20119;-88
2024/01/27 03:19:10;;;;;;;12.52;3.15;;;3.10;99.90;;;;;;5014902;28;20325;-88
2024/01/27 03:21:35;;;;;;;19.13;3.28;;;3.10;99.90;;;;;;5032683;28;20162;-88
2024/01/27 03:24:01;;;;;;;21.25;3.55;;;3.50;99.90;;;;;;5002328;28;20037;-88
2024/01/27 03:26:27;;;;;;;22.25;2.65;;;4.20;99.90;;;;;;5017743;28;20114;-88
2024/01/27 03:28:53;;;;;;;14.88;2.72;;;3.20;99.90;;;;;;5044524;28;20037;-88
2024/01/27 03:31:18;;;;;;;11.18;2.50;;;3.90;99.90;;;;;;5000437;28;20033;-88
2024/01/27 03:33:44;;;;;;;17.95;2.83;;;3.10;99.90;;;;;;5020484;28;20033;-88
2024/01/27 03:36:13;;;;;;;15.70;2.63;;;3.10;99.90;;;;;;5002804;28;20041;-88
2024/01/27 03:38:40;;;;;;;15.02;2.63;;;3.10;99.90;;;;;;5009189;28;20037;-88
2024/01/27 03:41:06;;;;;;;18.15;2.88;;;3.00;99.90;;;;;;4990545;28;20029;-88
2024/01/27 03:43:33;;;;;;;15.38;2.72;;;3.70;99.90;;;;;;5015904;28;20108;-89
2024/01/27 03:45:59;;;;;;;20.40;3.13;;;3.10;99.90;;;;;;4999312;28;20049;-88
2024/01/27 03:48:25;;;;;;;11.40;2.58;;;3.10;99.90;;;;;;5012023;28;20041;-87
2024/01/27 03:50:50;;;;;;;14.50;2.70;;;4.10;99.90;;;;;;5003259;28;20041;-88
2024/01/27 03:53:16;;;;;;;22.75;3.35;;;3.00;99.90;;;;;;4994745;28;20092;-90
2024/01/27 03:55:42;;;;;;;16.20;2.33;;;3.50;99.90;;;;;;5035719;28;20037;-90
2024/01/27 03:58:07;;;;;;;9.95;2.00;;;4.00;99.90;;;;;;5026542;28;20092;-88
2024/01/27 04:00:33;;;;;;;17.98;2.72;;;3.00;99.90;;;;;;5019148;28;20037;-89
2024/01/27 04:03:02;;;;;;;14.05;2.75;;;3.00;99.90;;;;;;5016553;28;20118;-88
2024/01/27 04:05:29;;;;;;;10.65;2.53;;;2.90;99.90;;;;;;5014834;28;20045;-89
2024/01/27 04:07:55;;;;;;;15.13;2.15;;;2.90;99.90;;;;;;5018282;28;20049;-89
2024/01/27 04:10:21;;;;;;;20.48;3.33;;;2.90;99.90;;;;;;5035345;28;20110;-88
2024/01/27 04:12:47;;;;;;;14.07;2.28;;;2.90;99.90;;;;;;5015642;28;20046;-88
2024/01/27 04:15:13;;;;;;;14.00;2.55;;;2.90;99.90;;;;;;5030655;28;20049;-88
2024/01/27 04:17:42;;;;;;;9.93;2.20;;;2.90;99.90;;;;;;5025841;28;20401;-87
2024/01/27 04:20:09;;;;;;;16.70;2.83;;;2.80;99.90;;;;;;5019597;28;20111;-88
2024/01/27 04:22:35;;;;;;;16.42;2.80;;;2.90;99.90;;;;;;5018245;28;20041;-89
2024/01/27 04:25:01;;;;;;;20.65;3.08;;;2.80;99.90;;;;;;5002986;28;20041;-87
2024/01/27 04:27:28;;;;;;;18.60;2.90;;;3.70;99.90;;;;;;5000245;28;20552;-88
2024/01/27 04:29:53;;;;;;;9.85;2.35;;;2.90;99.90;;;;;;5038314;28;20033;-89
2024/01/27 04:32:21;;;;;;;17.75;2.63;;;2.80;99.90;;;;;;5023559;28;20542;-88
2024/01/27 04:34:47;;;;;;;10.02;2.58;;;2.90;99.90;;;;;;5030932;28;20609;-88
2024/01/27 04:37:13;;;;;;;12.38;2.10;;;2.80;99.90;;;;;;5036246;28;20030;-88
2024/01/27 04:39:38;;;;;;;18.35;2.97;;;3.90;99.90;;;;;;5007539;28;20084;-88
2024/01/27 04:42:06;;;;;;;18.92;2.72;;;2.90;99.90;;;;;;5039210;28;20104;-88
2024/01/27 04:44:32;;;;;;;20.00;2.20;;;2.90;99.90;;;;;;5021518;28;20033;-88
2024/01/27 04:46:57;;;;;;;15.25;2.05;;;4.20;99.90;;;;;;5003545;28;20033;-87
2024/01/27 04:49:23;;;;;;;14.45;2.90;;;3.40;99.90;;;;;;5001769;28;20033;-88
2024/01/27 04:51:49;;;;;;;15.82;2.95;;;4.30;99.90;;;;;;5019327;28;20063;-89
2024/01/27 04:54:15;;;;;;;16.88;2.13;;;4.30;99.90;;;;;;5003680;28;20456;-89
2024/01/27 04:56:41;;;;;;;13.77;2.50;;;3.60;99.90;;;;;;5036764;28;20108;-89
2024/01/27 04:59:07;;;;;;;14.38;2.55;;;2.80;99.90;;;;;;5036632;28;20037;-88
2024/01/27 05:01:33;;;;;;;17.23;3.03;;;2.80;99.90;;;;;;5002028;28;20112;-89
2024/01/27 05:03:59;;;;;;;13.85;2.33;;;4.00;99.90;;;;;;5022253;28;20449;-88
2024/01/27 05:06:24;;;;;;;18.35;2.58;;;2.80;99.90;;;;;;5006720;28;20112;-88
2024/01/27 05:08:50;;;;;;;16.15;2.97;;;4.10;99.90;;;;;;5001438;28;20099;-88
2024/01/27 05:11:28;;;;;;;8.63;2.42;;;2.80;99.90;;;;;;5014213;28;20040;-87
2024/01/27 05:13:53;;;;;;;11.55;2.13;;;2.70;99.90;;;;;;5002773;28;20037;-89
2024/01/27 05:16:19;;;;;;;12.70;2.33;;;2.70;99.90;;;;;;5026439;28;20037;-88
2024/01/27 05:18:45;;;;;;;16.65;2.45;;;2.70;99.90;;;;;;4997276;28;20033;-88
2024/01/27 05:21:10;;;;;;;15.68;3.45;;;2.70;99.90;;;;;;5009029;28;20045;-88
2024/01/27 05:23:36;;;;;;;10.73;2.10;;;2.70;99.90;;;;;;4999582;28;20037;-88
2024/01/27 05:26:02;;;;;;;14.80;2.90;;;4.20;99.90;;;;;;4992970;28;20048;-89
2024/01/27 05:28:27;;;;;;;15.63;2.20;;;2.70;99.90;;;;;;5010708;28;20115;-88
2024/01/27 05:30:53;;;;;;;10.50;2.13;;;2.70;99.90;;;;;;5009554;28;20041;-88
2024/01/27 05:33:19;;;;;;;11.73;2.80;;;2.60;99.90;;;;;;5018181;28;20116;-89
2024/01/27 05:35:44;;;;;;;16.30;2.60;;;3.70;99.90;;;;;;5001326;28;20033;-88
2024/01/27 05:38:10;;;;;;;14.82;2.90;;;2.60;99.90;;;;;;5003721;28;20033;-89
2024/01/27 05:40:35;;;;;;;11.77;2.30;;;2.60;99.90;;;;;;5029536;28;20033;-88
2024/01/27 05:43:01;;;;;;;13.88;2.70;;;2.60;99.90;;;;;;5019423;28;20039;-89
2024/01/27 05:45:26;;;;;;;18.10;2.42;;;2.60;99.90;;;;;;5021704;28;20049;-88
2024/01/27 05:47:52;;;;;;;15.98;3.05;;;2.70;99.90;;;;;;5039441;28;20041;-89
2024/01/27 05:50:18;;;;;;;14.02;2.30;;;2.70;99.90;;;;;;5017388;28;20033;-88
2024/01/27 05:52:43;;;;;;;19.05;2.45;;;2.70;99.90;;;;;;5015906;28;20038;-88
2024/01/27 05:55:11;;;;;;;11.43;3.03;;;3.70;99.90;;;;;;5035189;28;20420;-88
2024/01/27 05:57:37;;;;;;;13.75;2.55;;;2.60;99.90;;;;;;5032476;28;20048;-88
2024/01/27 06:00:03;;;;;;;15.52;2.80;;;2.60;99.90;;;;;;5022998;28;20041;-88
2024/01/27 06:02:28;;;;;;;13.90;2.75;;;2.50;99.90;;;;;;4988834;28;20139;-88
2024/01/27 06:04:54;;;;;;;16.17;3.22;;;2.50;99.90;;;;;;5017533;28;20046;-88
2024/01/27 06:07:19;;;;;;;13.73;2.25;;;2.50;99.90;;;;;;5032269;28;20044;-89
2024/01/27 06:09:45;;;;;;;15.45;2.75;;;2.50;99.90;;;;;;5021050;28;20512;-88
2024/01/27 06:12:11;;;;;;;15.85;2.95;;;3.90;99.90;;;;;;5015604;28;20135;-88
2024/01/27 06:14:36;;;;;;;14.13;1.98;;;2.40;99.90;;;;;;5017440;28;20687;-88
2024/01/27 06:17:05;;;;;;;17.75;2.90;;;2.60;99.90;;;;;;5007797;28;20125;-88
2024/01/27 06:19:31;;;;;;;14.00;2.10;;;2.30;99.90;;;;;;4993885;28;20037;-89
2024/01/27 06:21:57;;;;;;;19.33;2.38;;;2.30;99.90;;;;;;4989373;28;20037;-88
2024/01/27 06:24:22;;;;;;;17.67;2.70;;;3.10;99.90;;;;;;5011889;28;20489;-88
2024/01/27 06:26:48;;;;;;;12.68;2.50;;;3.70;99.90;;;;;;5012771;28;20045;-89
2024/01/27 06:29:13;;;;;;;15.43;2.80;;;2.30;99.90;;;;;;5012650;28;20045;-88
2024/01/27 06:31:39;;;;;;;15.50;2.58;;;2.30;99.90;;;;;;5012580;28;20029;-88
2024/01/27 06:34:05;;;;;;;16.73;3.13;;;3.20;99.90;;;;;;5028823;28;20052;-89
2024/01/27 06:36:32;;;;;;;14.85;2.28;;;2.40;99.90;;;;;;5013496;28;20052;-88
2024/01/27 06:38:57;;;;;;;16.80;2.83;;;2.50;99.90;;;;;;5002658;28;20034;-89
2024/01/27 06:41:23;;;;;;;13.85;2.85;;;2.50;99.90;;;;;;4995180;28;20490;-90
2024/01/27 06:43:49;;;;;;;16.42;3.50;;;2.50;99.90;;;;;;5019434;28;20038;-88
2024/01/27 06:46:14;;;;;;;16.52;2.50;;;2.50;99.90;;;;;;5020147;28;20123;-89
2024/01/27 06:48:40;;;;;;;19.48;2.92;;;2.60;99.90;;;;;;4996683;28;20068;-89
2024/01/27 06:51:06;;;;;;;18.85;2.80;;;2.60;99.90;;;;;;5032401;28;20501;-88
2024/01/27 06:53:32;;;;;;;18.23;2.35;;;2.60;99.90;;;;;;5009047;28;20111;-89
2024/01/27 06:55:57;;;;;;;16.65;3.13;;;2.60;99.90;;;;;;5019161;28;20037;-89
2024/01/27 06:58:23;;;;;;;18.77;3.17;;;3.50;99.90;;;;;;5016508;28;20060;-88
2024/01/27 07:00:49;;;;;;;15.75;2.92;;;3.30;99.90;;;;;;5034036;28;20504;-89
2024/01/27 07:03:14;;;;;;;18.80;3.00;;;3.70;99.90;;;;;;4997843;28;20179;-89
2024/01/27 07:05:40;;;;;;;21.80;3.58;;;4.00;99.90;;;;;;5030778;28;20025;-88
2024/01/27 07:08:07;;;;;;;13.60;3.33;;;3.30;99.90;;;;;;5027213;28;20417;-88
2024/01/27 07:10:33;;;;;;;17.60;3.35;;;2.70;99.90;;;;;;5002828;28;20034;-89
2024/01/27 07:12:59;;;;;;;17.10;3.38;;;2.70;99.90;;;;;;5028667;28;20037;-89
2024/01/27 07:15:25;;;;;;;14.48;3.17;;;3.80;99.90;;;;;;5032812;28;20462;-89
2024/01/27 07:17:50;;;;;;;17.67;2.97;;;3.60;99.90;;;;;;5013966;28;20041;-88
2024/01/27 07:20:16;;;;;;;18.58;3.30;;;2.70;99.90;;;;;;5013985;28;20572;-89
2024/01/27 07:22:42;;;;;;;16.45;2.92;;;2.70;99.90;;;;;;5014064;28;20037;-89
2024/01/27 07:25:10;;;;;;;13.15;2.78;;;3.70;99.90;;;;;;4998746;28;20394;-89
2024/01/27 07:27:35;;;;;;;23.48;3.00;;;2.60;99.90;;;;;;4997940;28;20535;-89
2024/01/27 07:30:02;;;;;;;19.25;3.10;;;3.90;99.90;;;;;;5013881;28;20073;-89
2024/01/27 07:32:28;;;;;;;15.93;3.30;;;2.60;99.90;;;;;;4990260;28;20083;-88
2024/01/27 07:34:53;;;;;;;20.20;3.30;;;2.60;99.90;;;;;;5014128;28;20037;-89
2024/01/27 07:37:20;;;;;;;21.50;3.53;;;2.50;99.90;;;;;;4995359;28;20044;-89
2024/01/27 07:39:48;;;;;;;14.10;3.40;;;2.40;99.90;;;;;;4997538;28;20033;-89
2024/01/27 07:42:14;;;;;;;14.38;4.00;;;2.40;99.90;;;;;;5023659;28;20048;-90
2024/01/27 07:44:39;;;;;;;20.83;3.65;;;3.60;99.90;;;;;;5031490;28;20034;-89
2024/01/27 07:47:05;;;;;;;16.35;3.13;;;2.30;99.90;;;;;;4998907;28;20097;-89
2024/01/27 07:49:31;;;;;;;16.13;3.83;;;2.30;99.90;;;;;;5032103;28;20508;-89
2024/01/27 07:51:56;;;;;;;15.98;3.20;;;2.30;99.90;;;;;;5013862;28;20042;-87
2024/01/27 07:54:22;;;;;;;16.10;3.17;;;2.30;99.90;;;;;;4995806;28;20030;-89
2024/01/27 07:56:48;;;;;;;20.42;4.35;;;3.30;99.90;;;;;;5007440;28;20410;-89
2024/01/27 07:59:14;;;;;;;13.25;3.50;;;2.30;99.90;;;;;;5013653;28;20037;-89
2024/01/27 08:01:40;;;;;;;16.90;3.85;;;2.30;99.90;;;;;;4992464;28;20038;-89
2024/01/27 08:04:06;;;;;;;19.73;4.00;;;3.50;99.90;;;;;;5008928;28;20049;-89
2024/01/27 08:06:32;;;;;;;20.60;4.22;;;2.40;99.90;;;;;;5012343;28;20501;-88
2024/01/27 08:08:57;;;;;;;23.20;4.70;;;2.40;99.90;;;;;;5031508;28;20034;-89
2024/01/27 08:11:24;;;;;;;20.98;3.97;;;2.40;99.90;;;;;;5012644;28;20030;-89
2024/01/27 08:13:50;;;;;;;18.60;3.78;;;2.40;99.90;;;;;;5030595;28;20408;-89
2024/01/27 08:16:16;;;;;;;24.88;4.47;;;2.40;99.90;;;;;;5030978;28;20033;-88
2024/01/27 08:18:43;;;;;;;18.40;3.95;;;3.70;99.90;;;;;;5031122;28;20026;-89
2024/01/27 08:21:10;;;;;;;21.00;4.32;;;2.40;99.90;;;;;;5010281;28;20456;-89
2024/01/27 08:23:36;;;;;;;20.10;4.60;;;3.80;99.90;;;;;;5013973;28;20366;-90
2024/01/27 08:26:02;;;;;;;16.42;4.80;;;3.60;99.90;;;;;;5013597;28;20095;-90
2024/01/27 08:28:28;;;;;;;20.48;3.88;;;2.50;99.90;;;;;;4997079;28;20041;-90
2024/01/27 08:30:53;;;;;;;23.17;4.93;;;2.50;99.90;;;;;;5030981;28;20050;-91
2024/01/27 08:33:19;;;;;;;17.73;4.60;;;3.70;99.90;;;;;;4987769;28;20120;-90
2024/01/27 08:35:48;;;;;;;17.13;4.72;;;3.50;99.90;;;;;;4996317;28;20044;-90
2024/01/27 08:38:14;;;;;;;18.58;4.28;;;3.80;99.90;;;;;;4995725;28;20485;-93
2024/01/27 08:40:40;;;;;;;24.42;5.18;;;3.10;99.90;;;;;;5018869;28;20034;-91
2024/01/27 08:43:06;;;;;;;18.73;4.85;;;2.70;99.90;;;;;;4998580;28;20056;-90
2024/01/27 08:45:32;;;;;;;19.38;4.20;;;3.50;99.90;;;;;;4994091;28;20038;-90
2024/01/27 08:47:58;;;;;;;23.25;5.60;;;3.90;99.90;;;;;;5002674;28;20038;-89
2024/01/27 08:50:24;;;;;;;19.92;5.57;;;2.90;99.90;;;;;;5012677;28;20112;-89
2024/01/27 08:52:50;;;;;;;19.73;5.20;;;3.40;99.90;;;;;;5018570;28;20117;-90
2024/01/27 08:55:18;;;;;;;18.00;4.50;;;3.80;99.90;;;;;;5019718;28;20606;-90
2024/01/27 08:57:47;;;;;;;17.70;4.80;;;3.60;99.90;;;;;;4996042;28;20437;-89
2024/01/27 09:00:13;;;;;;;19.65;5.38;;;4.20;99.90;;;;;;5006895;28;20036;-90
2024/01/27 09:02:39;;;;;;;17.50;5.35;;;3.00;99.90;;;;;;5010925;28;20049;-90
2024/01/27 09:05:05;;;;;;;19.13;5.05;;;3.00;99.90;;;;;;5016396;28;20046;-90
2024/01/27 09:07:31;;;;;;;23.50;5.97;;;3.10;99.90;;;;;;5034946;28;20045;-91
2024/01/27 09:09:57;;;;;;;20.67;5.70;;;3.30;99.90;;;;;;5030222;28;20037;-89
2024/01/27 09:12:23;;;;;;;21.27;6.15;;;4.20;99.90;;;;;;5027480;28;20046;-90
2024/01/27 09:14:48;;;;;;;20.75;6.00;;;4.30;99.90;;;;;;5037260;28;20037;-91
2024/01/27 09:17:14;;;;;;;29.58;7.40;;;4.40;99.90;;;;;;5020913;28;20042;-90
2024/01/27 09:19:40;;;;;;;17.55;6.75;;;4.20;99.90;;;;;;5034489;28;20116;-90
2024/01/27 09:22:05;;;;;;;16.50;6.60;;;3.30;99.90;;;;;;5019784;28;20051;-90
2024/01/27 09:24:32;;;;;;;17.42;7.05;;;3.40;99.90;;;;;;5002626;28;20124;-89
2024/01/27 09:26:57;;;;;;;21.83;7.13;;;4.40;99.90;;;;;;5001485;28;20105;-90
2024/01/27 09:29:23;;;;;;;16.65;6.88;;;4.70;99.90;;;;;;5031527;28;20451;-90
2024/01/27 09:31:49;;;;;;;18.23;6.55;;;3.50;99.90;;;;;;5040243;28;20048;-90
2024/01/27 09:34:15;;;;;;;18.92;6.80;;;3.60;99.90;;;;;;5019219;28;20033;-90
2024/01/27 09:36:40;;;;;;;19.35;6.97;;;3.60;99.90;;;;;;5004238;28;20405;-91
2024/01/27 09:39:06;;;;;;;20.02;6.35;;;4.80;99.90;;;;;;5016626;28;20045;-91
2024/01/27 09:41:32;;;;;;;18.48;6.72;;;5.30;99.90;;;;;;5016862;28;20560;-89
2024/01/27 09:44:02;;;;;;;19.63;6.43;;;4.40;99.90;;;;;;5014464;28;20041;-89
2024/01/27 09:46:28;;;;;;;16.85;6.40;;;4.00;99.90;;;;;;4994928;28;20087;-90
2024/01/27 09:48:54;;;;;;;22.65;6.85;;;5.20;99.90;;;;;;5000362;28;20049;-91
2024/01/27 09:51:20;;;;;;;20.75;6.60;;;5.20;99.90;;;;;;5021934;28;20563;-91
2024/01/27 09:53:46;;;;;;;18.67;6.25;;;5.10;99.90;;;;;;5029165;28;20037;-91
2024/01/27 09:56:18;;;;;;;23.65;7.57;;;4.30;99.90;;;;;;5008052;28;20033;-91
2024/01/27 09:58:44;;;;;;;20.23;6.97;;;4.40;99.90;;;;;;4999737;28;20060;-90
2024/01/27 10:01:11;;;;;;;20.40;7.30;;;4.90;99.90;;;;;;5005057;28;20107;-91
2024/01/27 10:03:40;;;;;;;21.88;6.72;;;4.60;99.90;;;;;;4988791;28;20084;-91
2024/01/27 10:06:09;;;;;;;23.27;6.57;;;6.10;99.90;;;;;;5037402;28;20100;-90
2024/01/27 10:08:34;;;;;;;27.20;6.93;;;5.90;99.90;;;;;;5017811;28;20041;-91
2024/01/27 10:11:09;;;;;;;23.15;7.47;;;5.50;99.90;;;;;;5019766;28;20528;-90
2024/01/27 10:13:36;;;;;;;22.60;6.05;;;6.00;99.90;;;;;;5018582;28;20044;-90
2024/01/27 10:16:06;;;;;;;21.58;6.28;;;6.40;99.90;;;;;;5015950;28;20029;-90
2024/01/27 10:18:33;;;;;;;20.70;6.10;;;5.30;99.90;;;;;;5015343;28;20037;-90
2024/01/27 10:20:59;;;;;;;14.88;5.93;;;6.50;99.90;;;;;;4997996;28;20033;-90
2024/01/27 10:23:25;;;;;;;16.17;5.65;;;5.50;99.90;;;;;;4998692;28;20472;-90
2024/01/27 10:25:52;;;;;;;24.27;5.93;;;6.60;99.90;;;;;;5000821;28;20045;-90
2024/01/27 10:28:18;;;;;;;16.73;5.90;;;6.60;99.90;;;;;;5016328;28;20077;-89
2024/01/27 10:30:44;;;;;;;19.38;6.28;;;6.70;99.90;;;;;;5037803;28;20635;-89
2024/01/27 10:33:13;;;;;;;20.27;5.50;;;6.80;99.90;;;;;;5019628;28;20060;-90
2024/01/27 10:35:42;;;;;;;20.30;6.15;;;7.20;99.90;;;;;;5002500;28;20398;-91
2024/01/27 10:38:07;;;;;;;17.98;5.80;;;6.80;99.90;;;;;;5002976;28;20038;-89
2024/01/27 10:40:36;;;;;;;18.55;5.63;;;6.80;99.90;;;;;;4988254;28;20408;-90
2024/01/27 10:43:07;;;;;;;18.55;5.30;;;6.70;99.90;;;;;;5009009;28;20030;-90
2024/01/27 10:45:38;;;;;;;20.35;5.95;;;6.40;99.90;;;;;;5006453;28;20053;-89
2024/01/27 10:48:05;;;;;;;21.88;6.18;;;6.30;99.90;;;;;;5001532;28;20065;-91
2024/01/27 10:50:38;;;;;;;20.08;6.82;;;6.20;99.90;;;;;;4987611;28;20038;-89
2024/01/27 10:53:08;;;;;;;16.50;5.63;;;7.10;99.90;;;;;;4997789;28;20041;-89
2024/01/27 10:55:37;;;;;;;18.58;5.72;;;6.70;99.90;;;;;;5013924;28;20122;-87
2024/01/27 10:58:03;;;;;;;17.83;6.20;;;7.20;99.90;;;;;;4997956;28;20036;-88
2024/01/27 11:00:30;;;;;;;15.88;5.30;;;6.50;99.90;;;;;;5013391;28;20425;-88
2024/01/27 11:03:02;;;;;;;17.58;5.50;;;7.40;99.90;;;;;;4997927;28;20056;-87
2024/01/27 11:05:31;;;;;;;18.70;6.30;;;6.60;99.90;;;;;;4994531;28;20037;-89
2024/01/27 11:07:58;;;;;;;20.80;5.43;;;7.80;99.90;;;;;;5006002;28;20041;-89
2024/01/27 11:10:26;;;;;;;20.83;6.28;;;6.80;99.90;;;;;;5021304;28;20151;-90
2024/01/27 11:12:54;;;;;;;17.45;5.03;;;7.80;99.90;;;;;;5030883;28;20045;-90
2024/01/27 11:15:21;;;;;;;16.50;5.15;;;7.00;99.90;;;;;;4997753;28;20033;-87
2024/01/27 11:17:46;;;;;;;18.38;5.43;;;7.50;99.90;;;;;;5003235;28;20069;-90
2024/01/27 11:20:13;;;;;;;22.15;5.65;;;7.70;99.90;;;;;;4996623;28;20080;-89
2024/01/27 11:22:40;;;;;;;17.35;5.10;;;7.10;99.90;;;;;;5007746;28;20087;-91
2024/01/27 11:25:12;;;;;;;19.15;4.80;;;7.10;99.90;;;;;;5015223;28;20040;-87
2024/01/27 11:27:39;;;;;;;16.92;4.95;;;7.70;99.90;;;;;;5034722;28;20123;-89
2024/01/27 11:30:06;;;;;;;18.23;5.20;;;7.20;99.90;;;;;;5019202;28;20064;-90
2024/01/27 11:32:32;;;;;;;14.43;4.90;;;7.20;99.90;;;;;;5041528;28;20081;-89
2024/01/27 11:35:02;;;;;;;15.88;5.15;;;7.40;99.90;;;;;;4993845;28;20030;-89
2024/01/27 11:37:31;;;;;;;18.83;5.43;;;7.40;99.90;;;;;;5020374;28;20094;-90
2024/01/27 11:40:06;;;;;;;21.17;5.32;;;7.40;99.90;;;;;;5032259;28;20048;-91
2024/01/27 11:42:32;;;;;;;19.50;4.65;;;7.40;99.90;;;;;;4993661;28;20037;-90
2024/01/27 11:44:57;;;;;;;20.65;4.78;;;8.40;99.90;;;;;;4997187;28;20164;-89
2024/01/27 11:47:25;;;;;;;16.42;5.25;;;7.60;99.90;;;;;;5014036;28;20413;-89
2024/01/27 11:49:56;;;;;;;17.00;4.90;;;8.20;99.90;;;;;;5015419;28;20117;-89
2024/01/27 11:52:23;;;;;;;16.15;4.15;;;8.20;99.90;;;;;;4998185;28;20068;-89
2024/01/27 11:54:59;;;;;;;19.75;5.00;;;7.90;99.90;;;;;;4997337;28;20131;-90
2024/01/27 11:57:26;;;;;;;19.92;4.20;;;7.90;99.90;;;;;;5012684;28;20076;-89
2024/01/27 11:59:52;;;;;;;15.30;3.63;;;8.10;99.90;;;;;;5012397;28;20092;-89
2024/01/27 12:02:18;;;;;;;16.13;3.72;;;8.00;99.90;;;;;;5028513;28;20082;-89
2024/01/27 12:04:44;;;;;;;17.08;4.70;;;8.50;99.90;;;;;;5014009;28;20045;-88
2024/01/27 12:07:10;;;;;;;18.40;4.70;;;8.40;99.90;;;;;;5007797;28;20043;-89
2024/01/27 12:09:39;;;;;;;17.38;4.22;;;8.80;99.90;;;;;;5013675;28;21218;-89
2024/01/27 12:12:05;;;;;;;12.70;4.65;;;8.40;99.90;;;;;;5033492;28;20501;-89
2024/01/27 12:14:59;;;;;;;15.50;3.38;;;8.30;99.90;;;;;;5013254;28;20580;-89
2024/01/27 12:17:25;;;;;;;;;;;8.80;99.90;;;;;;5020534;28;20049;-88
2024/01/27 12:19:55;;;;;;;13.57;3.20;;;8.40;99.90;;;;;;5007735;28;20004;-88
2024/01/27 12:22:26;;;;;;;18.88;3.72;;;8.60;99.90;;;;;;5005413;28;20034;-88
2024/01/27 12:24:52;;;;;;;16.33;3.92;;;8.50;99.90;;;;;;4999897;28;20037;-88
2024/01/27 12:27:18;;;;;;;13.95;3.67;;;8.60;99.90;;;;;;5008704;28;20482;-89
2024/01/27 12:29:47;;;;;;;16.58;4.13;;;8.70;99.90;;;;;;5026666;28;20045;-89
2024/01/27 12:32:12;;;;;;;19.60;4.50;;;8.60;99.90;;;;;;5033955;28;20038;-88
2024/01/27 12:34:45;;;;;;;17.52;3.90;;;9.20;99.90;;;;;;5032625;28;20045;-89
2024/01/27 12:37:13;;;;;;;18.58;4.18;;;9.00;99.90;;;;;;5034639;28;20046;-88
2024/01/27 12:39:42;;;;;;;16.40;3.83;;;9.10;99.90;;;;;;5034897;28;20045;-87
2024/01/27 12:42:07;;;;;;;15.77;3.45;;;9.20;99.90;;;;;;5024057;28;20239;-89
2024/01/27 12:44:33;;;;;;;15.43;3.50;;;9.50;99.90;;;;;;5009608;28;20084;-87